createdAt,value
2019-05-03T00:00:54.723Z,11.60
2019-05-03T00:01:54.462Z,12.20
2019-05-03T00:02:54.580Z,10.90
2019-05-03T00:03:54.349Z,11.20
2019-05-03T00:04:54.877Z,11.70
2019-05-03T00:05:55.734Z,12.00
2019-05-03T00:06:54.263Z,11.50
2019-05-03T00:07:54.270Z,11.80
2019-05-03T00:08:54.367Z,11.40
2019-05-03T00:09:54.448Z,12.10
2019-05-03T00:10:54.673Z,11.50
2019-05-03T00:11:54.572Z,11.40
2019-05-03T00:12:54.505Z,12.00
2019-05-03T00:13:54.327Z,11.50
2019-05-03T00:14:54.410Z,11.60
2019-05-03T00:15:55.272Z,11.70
2019-05-03T00:16:54.162Z,12.30
2019-05-03T00:17:54.089Z,11.90
2019-05-03T00:18:54.219Z,12.30
2019-05-03T00:19:54.285Z,12.20
2019-05-03T00:20:54.129Z,13.50
2019-05-03T00:21:54.105Z,13.20
2019-05-03T00:22:54.052Z,13.10
2019-05-03T00:23:54.649Z,13.40
2019-05-03T00:25:05.317Z,12.00
2019-05-03T00:25:56.039Z,11.80
2019-05-03T00:26:54.250Z,12.20
2019-05-03T00:27:54.266Z,12.70
2019-05-03T00:28:53.985Z,12.80
2019-05-03T00:29:54.213Z,13.70
2019-05-03T00:30:54.226Z,13.20
2019-05-03T00:31:54.489Z,13.70
2019-05-03T00:32:54.191Z,12.50
2019-05-03T00:33:54.026Z,13.30
2019-05-03T00:34:53.942Z,13.10
2019-05-03T00:35:54.035Z,12.90
2019-05-03T00:36:53.989Z,13.50
2019-05-03T00:37:53.958Z,13.30
2019-05-03T00:38:54.013Z,13.60
2019-05-03T00:39:53.967Z,12.80
2019-05-03T00:40:53.957Z,13.50
2019-05-03T00:41:53.873Z,13.70
2019-05-03T00:42:53.905Z,14.20
2019-05-03T00:43:53.931Z,13.60
2019-05-03T00:44:53.823Z,13.10
2019-05-03T00:45:53.864Z,13.50
2019-05-03T00:46:53.886Z,13.60
2019-05-03T00:47:53.821Z,14.00
2019-05-03T00:48:53.813Z,14.20
2019-05-03T00:49:53.810Z,13.30
2019-05-03T00:50:53.877Z,14.00
2019-05-03T00:51:53.729Z,13.80
2019-05-03T00:52:53.909Z,13.80
2019-05-03T00:53:53.776Z,14.00
2019-05-03T00:54:53.748Z,13.80
2019-05-03T00:55:53.859Z,13.60
2019-05-03T00:56:53.817Z,13.80
2019-05-03T00:57:53.724Z,14.20
2019-05-03T00:58:53.764Z,14.30
2019-05-03T00:59:54.884Z,13.30
2019-05-03T01:00:54.406Z,13.80
2019-05-03T01:01:53.659Z,13.80
2019-05-03T01:02:53.961Z,14.00
2019-05-03T01:03:53.841Z,12.40
2019-05-03T01:04:53.659Z,13.70
2019-05-03T01:05:54.573Z,14.10
2019-05-03T01:06:53.758Z,13.90
2019-05-03T01:07:53.673Z,14.20
2019-05-03T01:08:53.697Z,13.20
2019-05-03T01:09:53.737Z,13.20
2019-05-03T01:10:53.673Z,13.20
2019-05-03T01:11:53.539Z,13.00
2019-05-03T01:12:53.903Z,12.90
2019-05-03T01:13:53.666Z,13.50
2019-05-03T01:14:55.841Z,12.90
2019-05-03T01:15:53.610Z,13.50
2019-05-03T01:16:53.797Z,13.30
2019-05-03T01:17:53.779Z,13.50
2019-05-03T01:18:53.628Z,14.10
2019-05-03T01:19:53.578Z,13.90
2019-05-03T01:20:53.457Z,13.70
2019-05-03T01:21:53.647Z,12.80
2019-05-03T01:22:55.257Z,12.80
2019-05-03T01:23:53.728Z,13.00
2019-05-03T01:24:53.663Z,13.60
2019-05-03T01:25:53.529Z,13.60
2019-05-03T01:26:54.241Z,13.10
2019-05-03T01:27:53.493Z,13.00
2019-05-03T01:28:56.149Z,14.00
2019-05-03T01:29:53.941Z,13.00
2019-05-03T01:30:53.517Z,13.10
2019-05-03T01:31:54.351Z,13.20
2019-05-03T01:32:53.489Z,14.10
2019-05-03T01:33:53.315Z,13.80
2019-05-03T01:34:53.742Z,13.60
2019-05-03T01:35:54.487Z,12.20
2019-05-03T01:36:55.341Z,12.30
2019-05-03T01:37:53.326Z,13.00
2019-05-03T01:38:53.728Z,13.20
2019-05-03T01:39:55.405Z,12.90
2019-05-03T01:40:53.555Z,12.30
2019-05-03T01:41:53.905Z,12.80
2019-05-03T01:42:54.165Z,12.90
2019-05-03T01:43:53.721Z,12.30
2019-05-03T01:44:53.205Z,12.40
2019-05-03T01:45:53.160Z,12.60
2019-05-03T01:46:53.220Z,13.20
2019-05-03T01:47:53.357Z,12.30
2019-05-03T01:48:54.481Z,13.10
2019-05-03T01:49:53.460Z,13.30
2019-05-03T01:50:53.279Z,13.20
2019-05-03T01:51:53.447Z,12.80
2019-05-03T01:52:53.307Z,13.80
2019-05-03T01:53:53.450Z,12.60
2019-05-03T01:54:53.524Z,12.60
2019-05-03T01:55:53.231Z,13.40
2019-05-03T01:56:58.861Z,13.50
2019-05-03T01:57:53.147Z,12.90
2019-05-03T01:58:53.252Z,12.80
2019-05-03T01:59:53.208Z,13.20
2019-05-03T02:00:53.493Z,12.00
2019-05-03T02:01:53.284Z,13.30
2019-05-03T02:02:53.025Z,13.30
2019-05-03T02:03:53.209Z,12.40
2019-05-03T02:04:53.385Z,13.10
2019-05-03T02:05:53.169Z,12.40
2019-05-03T02:06:59.083Z,13.30
2019-05-03T02:07:53.644Z,12.00
2019-05-03T02:08:53.411Z,12.70
2019-05-03T02:09:53.039Z,12.80
2019-05-03T02:10:52.905Z,12.60
2019-05-03T02:11:55.707Z,12.80
2019-05-03T02:12:54.361Z,11.90
2019-05-03T02:13:53.221Z,11.80
2019-05-03T02:14:53.097Z,13.00
2019-05-03T02:15:52.961Z,12.30
2019-05-03T02:16:53.115Z,12.50
2019-05-03T02:17:53.288Z,13.00
2019-05-03T02:18:53.107Z,11.90
2019-05-03T02:19:52.931Z,12.90
2019-05-03T02:20:53.149Z,13.20
2019-05-03T02:21:54.871Z,12.70
2019-05-03T02:22:52.918Z,12.00
2019-05-03T02:23:54.765Z,12.70
2019-05-03T02:24:53.171Z,12.80
2019-05-03T02:25:58.764Z,12.10
2019-05-03T02:27:05.868Z,12.00
2019-05-03T02:27:54.138Z,11.90
2019-05-03T02:28:52.862Z,12.20
2019-05-03T02:29:52.868Z,12.00
2019-05-03T02:30:53.553Z,12.10
2019-05-03T02:31:53.442Z,12.90
2019-05-03T02:32:53.441Z,12.30
2019-05-03T02:33:53.325Z,11.90
2019-05-03T02:35:02.540Z,12.00
2019-05-03T02:35:53.380Z,11.50
2019-05-03T02:36:54.443Z,12.00
2019-05-03T02:37:53.273Z,12.00
2019-05-03T02:38:53.503Z,12.20
2019-05-03T02:39:55.268Z,11.80
2019-05-03T02:40:53.339Z,11.50
2019-05-03T02:41:59.701Z,12.10
2019-05-03T02:42:55.281Z,11.90
2019-05-03T02:43:52.624Z,11.10
2019-05-03T02:44:55.148Z,11.90
2019-05-03T02:45:52.778Z,12.80
2019-05-03T02:46:56.042Z,11.90
2019-05-03T02:47:55.771Z,11.30
2019-05-03T02:48:54.971Z,11.10
2019-05-03T02:49:56.011Z,11.40
2019-05-03T02:50:52.541Z,11.80
2019-05-03T02:51:55.598Z,11.10
2019-05-03T02:52:55.068Z,11.40
2019-05-03T02:53:56.772Z,11.00
2019-05-03T02:54:55.502Z,11.40
2019-05-03T02:55:55.931Z,10.60
2019-05-03T02:56:52.648Z,11.40
2019-05-03T02:57:52.811Z,10.70
2019-05-03T02:58:55.803Z,11.10
2019-05-03T02:59:55.538Z,11.20
2019-05-03T03:00:55.857Z,12.20
2019-05-03T03:01:55.750Z,11.50
2019-05-03T03:02:52.787Z,11.10
2019-05-03T03:03:52.558Z,11.50
2019-05-03T03:04:52.658Z,11.20
2019-05-03T03:05:52.537Z,10.70
2019-05-03T03:06:55.454Z,10.80
2019-05-03T03:07:55.696Z,10.70
2019-05-03T03:08:52.523Z,11.60
2019-05-03T03:09:52.295Z,10.80
2019-05-03T03:10:55.578Z,12.10
2019-05-03T03:11:52.222Z,10.40
2019-05-03T03:12:55.150Z,10.90
2019-05-03T03:13:56.287Z,11.00
2019-05-03T03:14:52.777Z,10.90
2019-05-03T03:15:55.374Z,11.50
2019-05-03T03:16:52.189Z,10.60
2019-05-03T03:17:55.805Z,11.20
2019-05-03T03:18:55.689Z,11.00
2019-05-03T03:19:55.114Z,12.00
2019-05-03T03:20:55.358Z,10.90
2019-05-03T03:21:52.313Z,10.60
2019-05-03T03:22:58.179Z,11.10
2019-05-03T03:23:52.615Z,10.90
2019-05-03T03:24:52.496Z,10.50
2019-05-03T03:25:52.228Z,10.80
2019-05-03T03:26:52.363Z,10.70
2019-05-03T03:27:52.130Z,11.10
2019-05-03T03:28:52.233Z,10.00
2019-05-03T03:29:55.299Z,10.10
2019-05-03T03:30:57.181Z,11.70
2019-05-03T03:31:57.345Z,11.50
2019-05-03T03:32:57.693Z,11.10
2019-05-03T03:33:52.024Z,11.20
2019-05-03T03:35:00.614Z,11.10
2019-05-03T03:35:57.961Z,11.50
2019-05-03T03:37:00.694Z,10.90
2019-05-03T03:37:52.126Z,10.00
2019-05-03T03:38:55.285Z,10.40
2019-05-03T03:39:52.151Z,11.10
2019-05-03T03:40:55.521Z,10.70
2019-05-03T03:41:55.647Z,11.20
2019-05-03T03:42:55.674Z,10.70
2019-05-03T03:43:52.289Z,11.20
2019-05-03T03:44:52.477Z,10.40
2019-05-03T03:45:52.128Z,11.40
2019-05-03T03:46:52.279Z,11.50
2019-05-03T03:47:56.364Z,10.90
2019-05-03T03:48:55.786Z,10.50
2019-05-03T03:49:55.230Z,11.20
2019-05-03T03:50:51.892Z,10.90
2019-05-03T03:51:51.973Z,10.90
2019-05-03T03:52:56.802Z,10.60
2019-05-03T03:53:52.018Z,11.10
2019-05-03T03:54:51.995Z,10.90
2019-05-03T03:55:52.149Z,9.90
2019-05-03T03:56:59.351Z,10.80
2019-05-03T03:57:55.717Z,10.20
2019-05-03T03:58:51.844Z,10.00
2019-05-03T03:59:52.101Z,10.00
2019-05-03T04:00:52.048Z,9.90
2019-05-03T04:01:52.205Z,9.80
2019-05-03T04:02:55.269Z,10.20
2019-05-03T04:03:53.019Z,10.00
2019-05-03T04:04:56.656Z,10.20
2019-05-03T04:05:51.877Z,9.70
2019-05-03T04:06:51.976Z,10.40
2019-05-03T04:07:56.045Z,10.10
2019-05-03T04:08:55.988Z,9.90
2019-05-03T04:09:56.091Z,10.00
2019-05-03T04:10:55.710Z,10.00
2019-05-03T04:11:51.970Z,10.00
2019-05-03T04:12:51.831Z,11.10
2019-05-03T04:13:51.598Z,10.90
2019-05-03T04:14:52.327Z,10.30
2019-05-03T04:15:51.819Z,10.10
2019-05-03T04:16:51.484Z,10.10
2019-05-03T04:17:51.590Z,9.50
2019-05-03T04:18:51.616Z,9.00
2019-05-03T04:19:51.580Z,9.60
2019-05-03T04:20:51.628Z,8.90
2019-05-03T04:21:51.483Z,8.70
2019-05-03T04:22:51.450Z,8.10
2019-05-03T04:23:51.417Z,8.00
2019-05-03T04:24:55.093Z,7.80
2019-05-03T04:25:51.881Z,8.20
2019-05-03T04:26:51.454Z,7.90
2019-05-03T04:27:51.706Z,8.20
2019-05-03T04:28:51.802Z,8.10
2019-05-03T04:29:51.647Z,7.80
2019-05-03T04:30:51.628Z,8.10
2019-05-03T04:31:51.592Z,8.20
2019-05-03T04:32:52.005Z,7.90
2019-05-03T04:33:51.564Z,8.40
2019-05-03T04:34:51.529Z,8.20
2019-05-03T04:35:51.618Z,8.20
2019-05-03T04:36:51.583Z,8.10
2019-05-03T04:37:51.462Z,8.60
2019-05-03T04:38:51.619Z,8.20
2019-05-03T04:39:52.215Z,8.50
2019-05-03T04:40:51.390Z,8.70
2019-05-03T04:41:51.817Z,8.70
2019-05-03T04:42:51.567Z,8.50
2019-05-03T04:43:51.472Z,8.60
2019-05-03T04:44:51.474Z,8.70
2019-05-03T04:45:51.594Z,8.90
2019-05-03T04:46:54.849Z,9.40
2019-05-03T04:47:51.790Z,9.10
2019-05-03T04:49:00.999Z,9.20
2019-05-03T04:49:51.630Z,9.00
2019-05-03T04:50:52.151Z,8.60
2019-05-03T04:51:51.122Z,7.90
2019-05-03T04:52:51.288Z,7.20
2019-05-03T04:53:55.612Z,8.00
2019-05-03T04:54:51.122Z,7.40
2019-05-03T04:55:51.205Z,7.10
2019-05-03T04:56:51.444Z,7.40
2019-05-03T04:57:51.143Z,7.30
2019-05-03T04:58:51.391Z,7.50
2019-05-03T04:59:51.308Z,7.40
2019-05-03T05:00:51.438Z,7.30
2019-05-03T05:01:51.190Z,7.40
2019-05-03T05:02:51.218Z,7.10
2019-05-03T05:03:52.870Z,7.70
2019-05-03T05:04:51.030Z,7.60
2019-05-03T05:05:51.112Z,6.80
2019-05-03T05:06:51.301Z,7.30
2019-05-03T05:07:51.221Z,6.90
2019-05-03T05:08:51.019Z,6.50
2019-05-03T05:09:51.995Z,6.60
2019-05-03T05:10:51.169Z,6.50
2019-05-03T05:11:51.516Z,6.40
2019-05-03T05:12:51.009Z,6.70
2019-05-03T05:13:51.828Z,6.80
2019-05-03T05:14:50.980Z,7.00
2019-05-03T05:15:51.053Z,6.40
2019-05-03T05:16:55.704Z,6.20
2019-05-03T05:17:51.334Z,6.30
2019-05-03T05:18:56.029Z,6.50
2019-05-03T05:19:50.900Z,6.50
2019-05-03T05:20:51.769Z,6.20
2019-05-03T05:21:50.843Z,6.60
2019-05-03T05:22:50.789Z,6.30
2019-05-03T05:23:50.921Z,6.20
2019-05-03T05:24:50.761Z,6.00
2019-05-03T05:25:50.941Z,5.90
2019-05-03T05:26:51.437Z,6.00
2019-05-03T05:27:54.643Z,6.40
2019-05-03T05:28:51.080Z,5.70
2019-05-03T05:29:51.308Z,6.00
2019-05-03T05:54:05.123Z,6.40
2019-05-03T05:54:55.308Z,5.50
2019-05-03T05:55:55.064Z,5.70
2019-05-03T05:56:54.708Z,5.80
2019-05-03T05:58:03.054Z,5.60
2019-05-03T05:58:55.403Z,5.70
2019-05-03T05:59:54.492Z,6.10
2019-05-03T06:00:55.219Z,5.50
2019-05-03T06:01:55.549Z,6.30
2019-05-03T06:02:55.122Z,5.80
2019-05-03T06:03:55.068Z,5.80
2019-05-03T06:04:54.439Z,5.80
2019-05-03T06:05:54.923Z,6.00
2019-05-03T06:06:55.362Z,5.60
2019-05-03T06:07:54.576Z,5.80
2019-05-03T06:08:54.764Z,5.50
2019-05-03T06:09:54.976Z,5.80
2019-05-03T06:10:55.354Z,5.90
2019-05-03T06:11:55.379Z,5.60
2019-05-03T06:12:54.549Z,5.80
2019-05-03T06:13:54.604Z,5.60
2019-05-03T06:14:54.435Z,5.30
2019-05-03T06:15:54.827Z,5.90
2019-05-03T06:16:55.275Z,5.60
2019-05-03T06:17:55.358Z,6.00
2019-05-03T06:18:54.475Z,5.40
2019-05-03T06:19:55.020Z,6.10
2019-05-03T06:20:54.378Z,5.20
2019-05-03T06:21:54.863Z,6.10
2019-05-03T06:22:54.944Z,5.90
2019-05-03T06:23:53.506Z,5.80
2019-05-03T06:24:54.388Z,5.10
2019-05-03T06:25:54.547Z,5.30
2019-05-03T06:26:54.654Z,4.70
2019-05-03T06:27:54.924Z,4.20
2019-05-03T06:28:54.520Z,5.00
2019-05-03T06:29:54.594Z,5.00
2019-05-03T06:30:54.499Z,4.90
2019-05-03T06:31:55.068Z,5.00
2019-05-03T06:32:55.101Z,4.70
2019-05-03T06:33:55.229Z,4.80
2019-05-03T06:34:54.596Z,4.70
2019-05-03T06:35:54.704Z,4.10
2019-05-03T06:36:55.235Z,4.20
2019-05-03T06:37:54.585Z,4.00
2019-05-03T06:38:54.771Z,4.30
2019-05-03T06:39:54.418Z,3.70
2019-05-03T06:40:54.410Z,3.90
2019-05-03T06:41:55.049Z,3.80
2019-05-03T06:42:57.255Z,4.10
2019-05-03T06:43:55.206Z,4.10
2019-05-03T06:44:54.648Z,3.90
2019-05-03T06:45:54.813Z,3.60
2019-05-03T06:46:55.109Z,3.70
2019-05-03T06:47:54.976Z,3.80
2019-05-03T06:48:54.302Z,3.30
2019-05-03T06:49:55.125Z,3.60
2019-05-03T06:50:55.667Z,3.80
2019-05-03T06:51:54.594Z,3.70
2019-05-03T06:52:54.806Z,3.60
2019-05-03T06:53:54.779Z,3.70
2019-05-03T06:54:55.229Z,3.80
2019-05-03T06:55:55.294Z,3.80
2019-05-03T06:56:53.151Z,4.00
2019-05-03T06:57:54.608Z,3.80
2019-05-03T06:58:54.735Z,3.80
2019-05-03T06:59:54.934Z,4.10
2019-05-03T07:00:55.234Z,3.90
2019-05-03T07:01:55.203Z,3.80
2019-05-03T07:02:54.623Z,3.70
2019-05-03T07:03:54.787Z,3.60
2019-05-03T07:04:53.041Z,3.40
2019-05-03T07:05:54.864Z,3.50
2019-05-03T07:06:55.059Z,3.60
2019-05-03T07:07:54.741Z,3.50
2019-05-03T07:08:54.823Z,3.70
2019-05-03T07:09:54.668Z,3.60
2019-05-03T07:10:54.943Z,3.80
2019-05-03T07:11:52.994Z,3.60
2019-05-03T07:12:54.688Z,3.40
2019-05-03T07:13:54.890Z,3.90
2019-05-03T07:14:54.576Z,3.60
2019-05-03T07:15:52.934Z,3.50
2019-05-03T07:16:52.990Z,3.40
2019-05-03T07:17:52.893Z,3.50
2019-05-03T07:18:56.439Z,3.00
2019-05-03T07:19:54.644Z,3.60
2019-05-03T07:20:54.960Z,3.40
2019-05-03T07:21:54.634Z,3.20
2019-05-03T07:22:52.839Z,3.00
2019-05-03T07:23:55.010Z,3.20
2019-05-03T07:24:54.515Z,2.80
2019-05-03T07:25:52.825Z,3.40
2019-05-03T07:26:59.028Z,3.10
2019-05-03T07:27:52.876Z,3.00
2019-05-03T07:28:54.547Z,3.20
2019-05-03T07:29:52.763Z,3.00
2019-05-03T07:30:54.380Z,3.10
2019-05-03T07:31:54.767Z,3.40
2019-05-03T07:32:54.550Z,3.40
2019-05-03T07:33:54.911Z,3.00
2019-05-03T07:34:52.707Z,3.10
2019-05-03T07:35:54.679Z,3.10
2019-05-03T07:36:52.715Z,3.20
2019-05-03T07:37:52.683Z,3.20
2019-05-03T07:38:52.703Z,3.40
2019-05-03T07:39:52.699Z,3.30
2019-05-03T07:40:54.815Z,3.00
2019-05-03T07:41:52.631Z,3.30
2019-05-03T07:42:52.627Z,3.20
2019-05-03T07:43:52.637Z,3.10
2019-05-03T07:44:52.598Z,3.20
2019-05-03T07:45:52.607Z,3.10
2019-05-03T07:46:52.578Z,2.80
2019-05-03T07:47:52.567Z,2.90
2019-05-03T07:48:54.660Z,3.00
2019-05-03T07:49:54.577Z,2.60
2019-05-03T07:50:54.539Z,2.60
2019-05-03T07:51:52.563Z,2.60
2019-05-03T07:52:52.507Z,2.80
2019-05-03T07:53:52.526Z,3.10
2019-05-03T07:54:52.491Z,2.70
2019-05-03T07:55:54.659Z,3.00
2019-05-03T07:56:52.466Z,3.10
2019-05-03T07:57:52.478Z,2.80
2019-05-03T07:58:59.962Z,2.80
2019-05-03T07:59:55.526Z,2.80
2019-05-03T08:01:03.552Z,2.50
2019-05-03T08:01:54.636Z,2.80
2019-05-03T08:02:52.529Z,3.00
2019-05-03T08:03:52.428Z,3.10
2019-05-03T08:04:52.447Z,2.70
2019-05-03T08:05:52.409Z,2.70
2019-05-03T08:06:54.797Z,2.60
2019-05-03T08:07:52.351Z,2.40
2019-05-03T08:08:54.417Z,2.50
2019-05-03T08:09:52.396Z,2.40
2019-05-03T08:10:52.312Z,2.30
2019-05-03T08:11:52.315Z,2.30
2019-05-03T08:12:54.344Z,2.50
2019-05-03T08:13:52.325Z,2.40
2019-05-03T08:14:52.267Z,2.50
2019-05-03T08:15:52.273Z,2.30
2019-05-03T08:16:54.611Z,2.50
2019-05-03T08:17:52.259Z,2.50
2019-05-03T08:18:53.082Z,2.60
2019-05-03T08:19:52.266Z,2.50
2019-05-03T08:20:52.203Z,2.50
2019-05-03T08:21:52.247Z,2.20
2019-05-03T08:22:52.205Z,2.30
2019-05-03T08:23:52.361Z,2.70
2019-05-03T08:24:52.173Z,2.30
2019-05-03T08:25:52.295Z,2.30
2019-05-03T08:26:52.151Z,2.10
2019-05-03T08:27:52.127Z,2.30
2019-05-03T08:28:54.360Z,2.10
2019-05-03T08:29:52.262Z,2.40
2019-05-03T08:30:52.094Z,2.50
2019-05-03T08:31:52.082Z,2.20
2019-05-03T08:32:52.155Z,2.60
2019-05-03T08:33:52.119Z,2.50
2019-05-03T08:34:52.053Z,2.60
2019-05-03T08:35:52.085Z,2.70
2019-05-03T08:36:52.048Z,2.50
2019-05-03T08:37:52.020Z,2.90
2019-05-03T08:38:52.702Z,2.60
2019-05-03T08:39:52.039Z,2.50
2019-05-03T08:40:51.992Z,2.80
2019-05-03T08:41:51.983Z,2.80
2019-05-03T08:42:51.995Z,2.30
2019-05-03T08:43:51.959Z,2.70
2019-05-03T08:44:51.975Z,2.70
2019-05-03T08:45:52.069Z,2.50
2019-05-03T08:46:51.952Z,2.60
2019-05-03T08:47:51.913Z,2.70
2019-05-03T08:48:51.908Z,2.60
2019-05-03T08:49:51.923Z,2.50
2019-05-03T08:50:51.928Z,2.90
2019-05-03T08:51:51.934Z,2.50
2019-05-03T08:52:51.861Z,2.60
2019-05-03T08:53:51.848Z,2.30
2019-05-03T08:54:51.877Z,2.60
2019-05-03T08:55:51.823Z,2.50
2019-05-03T08:56:51.813Z,2.70
2019-05-03T08:57:51.850Z,2.80
2019-05-03T08:58:51.799Z,3.00
2019-05-03T08:59:51.811Z,2.80
2019-05-03T09:02:05.199Z,2.60
2019-05-03T09:03:01.082Z,2.80
2019-05-03T09:04:00.124Z,3.20
2019-05-03T09:05:00.135Z,2.80
2019-05-03T09:06:00.094Z,3.10
2019-05-03T09:07:00.168Z,2.90
2019-05-03T09:08:00.057Z,2.90
2019-05-03T09:09:00.146Z,2.90
2019-05-03T09:10:00.094Z,2.80
2019-05-03T09:11:00.002Z,2.80
2019-05-03T09:12:00.033Z,2.70
2019-05-03T09:13:00.098Z,2.70
2019-05-03T09:14:00.092Z,2.70
2019-05-03T09:15:00.182Z,2.70
2019-05-03T09:16:00.012Z,2.80
2019-05-03T09:16:59.935Z,2.90
2019-05-03T09:17:59.937Z,2.70
2019-05-03T09:18:59.991Z,2.60
2019-05-03T09:19:59.932Z,2.90
2019-05-03T09:20:59.920Z,2.80
2019-05-03T09:21:59.921Z,2.60
2019-05-03T09:22:59.867Z,2.70
2019-05-03T09:23:59.855Z,3.00
2019-05-03T09:24:59.948Z,2.70
2019-05-03T09:25:59.835Z,2.50
2019-05-03T09:26:59.876Z,2.60
2019-05-03T09:27:59.923Z,2.70
2019-05-03T09:28:59.793Z,2.40
2019-05-03T09:29:59.787Z,2.70
2019-05-03T09:30:59.820Z,2.50
2019-05-03T09:31:59.763Z,2.50
2019-05-03T09:32:59.762Z,2.20
2019-05-03T09:33:59.745Z,2.50
2019-05-03T09:34:59.762Z,2.10
2019-05-03T09:35:59.748Z,3.20
2019-05-03T09:36:59.713Z,2.20
2019-05-03T09:37:59.711Z,3.70
2019-05-03T09:38:59.689Z,3.20
2019-05-03T09:39:59.685Z,2.90
2019-05-03T09:40:59.725Z,2.90
2019-05-03T09:41:59.669Z,2.40
2019-05-03T09:42:59.642Z,2.60
2019-05-03T09:43:59.708Z,2.40
2019-05-03T09:44:59.627Z,2.70
2019-05-03T09:45:59.641Z,2.30
2019-05-03T09:46:59.634Z,2.80
2019-05-03T09:47:59.590Z,2.70
2019-05-03T09:49:12.519Z,2.80
2019-05-03T09:50:02.225Z,3.00
2019-05-03T09:50:59.588Z,2.70
2019-05-03T09:51:59.657Z,3.20
2019-05-03T09:52:59.567Z,2.70
2019-05-03T09:53:59.550Z,2.90
2019-05-03T09:54:59.517Z,2.80
2019-05-03T09:55:59.529Z,2.60
2019-05-03T09:56:59.502Z,2.80
2019-05-03T09:57:59.482Z,2.70
2019-05-03T09:58:59.473Z,2.60
2019-05-03T10:00:00.076Z,2.80
2019-05-03T10:00:59.487Z,2.70
2019-05-03T10:01:59.433Z,2.90
2019-05-03T10:02:59.438Z,3.10
2019-05-03T10:03:59.434Z,2.90
2019-05-03T10:04:59.460Z,3.00
2019-05-03T10:05:59.659Z,3.10
2019-05-03T10:06:59.431Z,2.80
2019-05-03T10:07:59.518Z,2.70
2019-05-03T10:08:59.462Z,2.70
2019-05-03T10:09:59.387Z,3.10
2019-05-03T10:10:59.646Z,2.70
2019-05-03T10:11:59.357Z,2.70
2019-05-03T10:12:59.440Z,2.70
2019-05-03T10:13:59.319Z,2.70
2019-05-03T10:14:59.313Z,2.50
2019-05-03T10:15:59.331Z,2.30
2019-05-03T10:16:59.303Z,2.60
2019-05-03T10:17:59.263Z,2.60
2019-05-03T10:18:59.305Z,2.20
2019-05-03T10:19:59.321Z,2.50
2019-05-03T10:20:59.237Z,2.50
2019-05-03T10:21:59.286Z,2.70
2019-05-03T10:22:59.237Z,3.10
2019-05-03T10:23:59.361Z,2.70
2019-05-03T10:24:59.199Z,2.80
2019-05-03T10:25:59.175Z,3.80
2019-05-03T10:26:59.333Z,6.10
2019-05-03T10:27:59.172Z,5.10
2019-05-03T10:28:59.148Z,5.50
2019-05-03T10:30:12.154Z,4.80
2019-05-03T10:31:00.174Z,3.70
2019-05-03T10:31:59.157Z,3.20
2019-05-03T10:32:59.174Z,3.00
2019-05-03T10:33:59.091Z,3.30
2019-05-03T10:34:59.091Z,3.00
2019-05-03T10:35:59.171Z,3.30
2019-05-03T10:37:01.888Z,3.00
2019-05-03T10:37:59.326Z,3.10
2019-05-03T10:38:59.049Z,2.70
2019-05-03T10:39:59.029Z,2.70
2019-05-03T10:40:59.020Z,3.00
2019-05-03T10:41:59.034Z,2.40
2019-05-03T10:42:59.024Z,2.40
2019-05-03T10:43:59.002Z,2.30
2019-05-03T10:44:58.983Z,2.90
2019-05-03T10:45:58.969Z,2.40
2019-05-03T10:46:59.063Z,2.30
2019-05-03T10:47:58.969Z,2.50
2019-05-03T10:48:58.941Z,2.30
2019-05-03T10:49:58.952Z,2.40
2019-05-03T10:50:58.919Z,2.40
2019-05-03T10:51:58.941Z,2.30
2019-05-03T10:52:58.885Z,2.40
2019-05-03T10:53:58.905Z,2.20
2019-05-03T10:54:58.878Z,2.50
2019-05-03T10:55:58.870Z,2.30
2019-05-03T10:56:58.904Z,2.20
2019-05-03T10:57:58.875Z,2.20
2019-05-03T10:58:58.869Z,2.10
2019-05-03T10:59:59.127Z,2.40
2019-05-03T11:00:58.915Z,2.30
2019-05-03T11:02:01.875Z,2.30
2019-05-03T11:02:58.789Z,2.20
2019-05-03T11:03:58.780Z,2.30
2019-05-03T11:04:58.750Z,2.50
2019-05-03T11:05:58.772Z,2.50
2019-05-03T11:06:58.761Z,2.60
2019-05-03T11:07:58.744Z,2.70
2019-05-03T11:08:58.708Z,2.50
2019-05-03T11:09:58.725Z,2.70
2019-05-03T11:10:58.689Z,2.40
2019-05-03T11:11:58.728Z,2.60
2019-05-03T11:12:58.658Z,2.40
2019-05-03T11:13:58.646Z,2.90
2019-05-03T11:14:58.670Z,2.70
2019-05-03T11:15:58.629Z,3.00
2019-05-03T11:17:00.551Z,2.70
2019-05-03T11:17:58.603Z,2.60
2019-05-03T11:18:58.593Z,3.50
2019-05-03T11:19:58.594Z,2.40
2019-05-03T11:20:58.593Z,2.60
2019-05-03T11:21:58.590Z,2.70
2019-05-03T11:22:58.557Z,2.90
2019-05-03T11:23:58.543Z,2.70
2019-05-03T11:24:58.525Z,2.90
2019-05-03T11:25:58.517Z,2.50
2019-05-03T11:27:00.133Z,2.60
2019-05-03T11:27:58.503Z,2.50
2019-05-03T11:29:00.493Z,2.40
2019-05-03T11:29:59.285Z,2.30
2019-05-03T11:31:02.263Z,2.40
2019-05-03T11:31:58.485Z,2.60
2019-05-03T11:32:58.463Z,2.70
2019-05-03T11:33:58.434Z,2.60
2019-05-03T11:34:58.421Z,2.50
2019-05-03T11:35:58.418Z,2.60
2019-05-03T11:36:58.425Z,2.50
2019-05-03T11:37:58.389Z,2.70
2019-05-03T11:38:58.419Z,2.40
2019-05-03T11:39:58.368Z,2.50
2019-05-03T11:40:58.364Z,2.30
2019-05-03T11:41:58.376Z,2.30
2019-05-03T11:42:58.335Z,2.30
2019-05-03T11:43:58.333Z,2.60
2019-05-03T11:44:58.315Z,2.20
2019-05-03T11:45:58.315Z,2.30
2019-05-03T11:46:58.321Z,2.60
2019-05-03T11:47:58.278Z,2.50
2019-05-03T11:48:58.271Z,2.80
2019-05-03T11:49:58.269Z,2.40
2019-05-03T11:50:58.251Z,2.80
2019-05-03T11:51:58.340Z,2.90
2019-05-03T11:52:58.232Z,2.80
2019-05-03T11:53:58.220Z,2.70
2019-05-03T11:54:58.206Z,3.10
2019-05-03T11:55:58.197Z,2.90
2019-05-03T11:56:58.245Z,3.00
2019-05-03T11:57:58.175Z,2.90
2019-05-03T11:58:58.195Z,2.80
2019-05-03T11:59:58.159Z,2.80
2019-05-03T12:01:11.637Z,2.80
2019-05-03T12:01:59.159Z,2.80
2019-05-03T12:02:58.122Z,3.20
2019-05-03T12:03:58.113Z,2.90
2019-05-03T12:04:58.163Z,3.00
2019-05-03T12:05:58.095Z,3.10
2019-05-03T12:06:58.116Z,3.20
2019-05-03T12:07:58.062Z,2.90
2019-05-03T12:08:58.055Z,2.90
2019-05-03T12:09:58.060Z,2.60
2019-05-03T12:11:01.278Z,2.90
2019-05-03T12:11:58.091Z,3.10
2019-05-03T12:12:58.021Z,3.00
2019-05-03T12:14:04.387Z,3.00
2019-05-03T12:14:58.981Z,2.70
2019-05-03T12:15:58.094Z,2.90
2019-05-03T12:17:17.215Z,2.70
2019-05-03T12:17:59.643Z,3.20
2019-05-03T12:18:57.954Z,2.70
2019-05-03T12:19:58.997Z,3.00
2019-05-03T12:20:59.659Z,2.80
2019-05-03T12:21:58.642Z,2.90
2019-05-03T12:22:58.545Z,2.70
2019-05-03T12:23:58.665Z,2.90
2019-05-03T12:24:58.524Z,2.70
2019-05-03T12:25:58.411Z,2.90
2019-05-03T12:26:57.861Z,3.00
2019-05-03T12:27:57.893Z,2.90
2019-05-03T12:28:57.830Z,3.20
2019-05-03T12:29:57.851Z,3.00
2019-05-03T12:30:57.817Z,3.10
2019-05-03T12:31:57.810Z,3.00
2019-05-03T12:32:57.822Z,2.90
2019-05-03T12:33:57.790Z,3.20
2019-05-03T12:34:57.767Z,3.00
2019-05-03T12:35:57.803Z,3.10
2019-05-03T12:36:57.794Z,3.00
2019-05-03T12:37:57.767Z,3.10
2019-05-03T12:38:57.734Z,3.30
2019-05-03T12:39:57.718Z,2.90
2019-05-03T12:40:57.707Z,3.50
2019-05-03T12:41:57.699Z,3.40
2019-05-03T12:42:57.733Z,3.10
2019-05-03T12:43:57.673Z,3.20
2019-05-03T12:44:57.664Z,3.20
2019-05-03T12:45:57.654Z,3.10
2019-05-03T12:46:57.668Z,3.30
2019-05-03T12:47:57.653Z,3.20
2019-05-03T12:48:57.638Z,3.60
2019-05-03T12:49:57.615Z,3.30
2019-05-03T12:50:58.039Z,2.90
2019-05-03T12:51:57.587Z,3.00
2019-05-03T12:52:57.595Z,2.80
2019-05-03T12:53:57.562Z,2.80
2019-05-03T12:54:57.553Z,3.10
2019-05-03T12:55:57.579Z,3.10
2019-05-03T12:56:57.528Z,2.60
2019-05-03T12:57:57.570Z,3.00
2019-05-03T12:58:57.507Z,2.70
2019-05-03T12:59:57.495Z,2.90
2019-05-03T13:00:57.496Z,2.90
2019-05-03T13:01:57.479Z,3.00
2019-05-03T13:02:57.506Z,2.90
2019-05-03T13:03:57.451Z,2.70
2019-05-03T13:04:57.455Z,2.70
2019-05-03T13:05:57.437Z,2.60
2019-05-03T13:06:57.425Z,3.00
2019-05-03T13:07:57.435Z,3.20
2019-05-03T13:08:57.445Z,3.30
2019-05-03T13:09:57.405Z,3.10
2019-05-03T13:10:57.381Z,3.30
2019-05-03T13:11:59.038Z,3.10
2019-05-03T13:12:57.427Z,3.10
2019-05-03T13:13:57.342Z,3.30
2019-05-03T13:14:57.381Z,3.30
2019-05-03T13:15:57.326Z,3.30
2019-05-03T13:16:57.332Z,3.50
2019-05-03T13:17:57.326Z,3.40
2019-05-03T13:18:57.295Z,3.50
2019-05-03T13:19:57.281Z,3.30
2019-05-03T13:20:57.303Z,3.30
2019-05-03T13:21:57.251Z,3.50
2019-05-03T13:22:57.269Z,3.50
2019-05-03T13:23:57.231Z,3.40
2019-05-03T13:24:57.221Z,3.50
2019-05-03T13:25:57.236Z,3.50
2019-05-03T13:26:57.249Z,3.50
2019-05-03T13:27:57.234Z,3.50
2019-05-03T13:28:59.659Z,4.00
2019-05-03T13:29:57.167Z,3.50
2019-05-03T13:30:57.153Z,3.50
2019-05-03T13:32:01.913Z,3.50
2019-05-03T13:32:58.215Z,3.10
2019-05-03T13:33:57.122Z,3.20
2019-05-03T13:34:57.118Z,3.00